sensor_id;sensor_type;location;lat;lon;timestamp;temperature;humidity
12708;DHT22;6418;50.824;4.718;2022-07-11T00:01:37;16.30;99.90
12708;DHT22;6418;50.824;4.718;2022-07-11T00:04:04;16.30;99.90
12708;DHT22;6418;50.824;4.718;2022-07-11T00:06:31;16.30;99.90
12708;DHT22;6418;50.824;4.718;2022-07-11T00:08:59;16.20;99.90
12708;DHT22;6418;50.824;4.718;2022-07-11T00:11:26;16.20;99.90
12708;DHT22;6418;50.824;4.718;2022-07-11T00:13:53;16.20;99.90
12708;DHT22;6418;50.824;4.718;2022-07-11T00:16:20;16.20;99.90
12708;DHT22;6418;50.824;4.718;2022-07-11T00:18:47;16.10;99.90
12708;DHT22;6418;50.824;4.718;2022-07-11T00:21:14;16.10;99.90
12708;DHT22;6418;50.824;4.718;2022-07-11T00:23:41;16.00;99.90
12708;DHT22;6418;50.824;4.718;2022-07-11T00:26:10;16.00;99.90
12708;DHT22;6418;50.824;4.718;2022-07-11T00:28:37;16.00;99.90
12708;DHT22;6418;50.824;4.718;2022-07-11T00:31:04;16.00;99.90
12708;DHT22;6418;50.824;4.718;2022-07-11T00:33:33;15.90;99.90
12708;DHT22;6418;50.824;4.718;2022-07-11T00:36:00;15.90;99.90
12708;DHT22;6418;50.824;4.718;2022-07-11T00:38:28;15.80;99.90
12708;DHT22;6418;50.824;4.718;2022-07-11T00:40:55;15.70;99.90
12708;DHT22;6418;50.824;4.718;2022-07-11T00:43:30;15.70;99.90
12708;DHT22;6418;50.824;4.718;2022-07-11T00:45:57;15.70;99.90
12708;DHT22;6418;50.824;4.718;2022-07-11T00:48:24;15.60;99.90
12708;DHT22;6418;50.824;4.718;2022-07-11T00:50:51;15.60;99.90
12708;DHT22;6418;50.824;4.718;2022-07-11T00:53:19;15.60;99.90
12708;DHT22;6418;50.824;4.718;2022-07-11T00:55:47;15.50;99.90
12708;DHT22;6418;50.824;4.718;2022-07-11T00:58:14;15.50;99.90
12708;DHT22;6418;50.824;4.718;2022-07-11T01:00:42;15.50;99.90
12708;DHT22;6418;50.824;4.718;2022-07-11T01:03:10;15.50;99.90
12708;DHT22;6418;50.824;4.718;2022-07-11T01:05:37;15.40;99.90
12708;DHT22;6418;50.824;4.718;2022-07-11T01:08:04;15.40;99.90
12708;DHT22;6418;50.824;4.718;2022-07-11T01:10:31;15.40;99.90
12708;DHT22;6418;50.824;4.718;2022-07-11T01:12:59;15.30;99.90
12708;DHT22;6418;50.824;4.718;2022-07-11T01:15:26;15.30;99.90
12708;DHT22;6418;50.824;4.718;2022-07-11T01:17:54;15.20;99.90
12708;DHT22;6418;50.824;4.718;2022-07-11T01:20:22;15.20;99.90
12708;DHT22;6418;50.824;4.718;2022-07-11T01:22:52;15.20;99.90
12708;DHT22;6418;50.824;4.718;2022-07-11T01:25:21;15.20;99.90
12708;DHT22;6418;50.824;4.718;2022-07-11T01:27:58;15.20;99.90
12708;DHT22;6418;50.824;4.718;2022-07-11T01:30:26;15.20;99.90
12708;DHT22;6418;50.824;4.718;2022-07-11T01:32:53;15.20;99.90
12708;DHT22;6418;50.824;4.718;2022-07-11T01:35:21;15.10;99.90
12708;DHT22;6418;50.824;4.718;2022-07-11T01:37:48;15.00;99.90
12708;DHT22;6418;50.824;4.718;2022-07-11T01:40:15;15.00;99.90
12708;DHT22;6418;50.824;4.718;2022-07-11T01:42:44;15.00;99.90
12708;DHT22;6418;50.824;4.718;2022-07-11T01:45:11;15.00;99.90
12708;DHT22;6418;50.824;4.718;2022-07-11T01:47:39;14.90;99.90
12708;DHT22;6418;50.824;4.718;2022-07-11T01:50:06;14.90;99.90
12708;DHT22;6418;50.824;4.718;2022-07-11T01:52:34;14.90;99.90
12708;DHT22;6418;50.824;4.718;2022-07-11T01:55:01;14.90;99.90
12708;DHT22;6418;50.824;4.718;2022-07-11T01:57:28;14.90;99.90
12708;DHT22;6418;50.824;4.718;2022-07-11T01:59:56;14.90;99.90
12708;DHT22;6418;50.824;4.718;2022-07-11T02:02:23;14.80;99.90
12708;DHT22;6418;50.824;4.718;2022-07-11T02:04:50;14.80;99.90
12708;DHT22;6418;50.824;4.718;2022-07-11T02:07:17;14.70;99.90
12708;DHT22;6418;50.824;4.718;2022-07-11T02:10:04;14.70;99.90
12708;DHT22;6418;50.824;4.718;2022-07-11T02:12:31;14.70;99.90
12708;DHT22;6418;50.824;4.718;2022-07-11T02:14:59;14.70;99.90
12708;DHT22;6418;50.824;4.718;2022-07-11T02:17:26;14.70;99.90
12708;DHT22;6418;50.824;4.718;2022-07-11T02:19:53;14.70;99.90
12708;DHT22;6418;50.824;4.718;2022-07-11T02:22:20;14.60;99.90
12708;DHT22;6418;50.824;4.718;2022-07-11T02:24:47;14.60;99.90
12708;DHT22;6418;50.824;4.718;2022-07-11T02:27:14;14.50;99.90
12708;DHT22;6418;50.824;4.718;2022-07-11T02:29:41;14.50;99.90
12708;DHT22;6418;50.824;4.718;2022-07-11T02:32:09;14.50;99.90
12708;DHT22;6418;50.824;4.718;2022-07-11T02:34:36;14.50;99.90
12708;DHT22;6418;50.824;4.718;2022-07-11T02:37:04;14.50;99.90
12708;DHT22;6418;50.824;4.718;2022-07-11T02:39:31;14.50;99.90
12708;DHT22;6418;50.824;4.718;2022-07-11T02:41:58;14.50;99.90
12708;DHT22;6418;50.824;4.718;2022-07-11T02:44:25;14.50;99.90
12708;DHT22;6418;50.824;4.718;2022-07-11T02:46:52;14.40;99.90
12708;DHT22;6418;50.824;4.718;2022-07-11T02:49:20;14.40;99.90
12708;DHT22;6418;50.824;4.718;2022-07-11T02:51:48;14.30;99.90
12708;DHT22;6418;50.824;4.718;2022-07-11T02:54:15;14.30;99.90
12708;DHT22;6418;50.824;4.718;2022-07-11T02:56:43;14.30;99.90
12708;DHT22;6418;50.824;4.718;2022-07-11T02:59:11;14.30;99.90
12708;DHT22;6418;50.824;4.718;2022-07-11T03:01:38;14.20;99.90
12708;DHT22;6418;50.824;4.718;2022-07-11T03:04:06;14.20;99.90
12708;DHT22;6418;50.824;4.718;2022-07-11T03:06:35;14.20;99.90
12708;DHT22;6418;50.824;4.718;2022-07-11T03:09:04;14.20;99.90
12708;DHT22;6418;50.824;4.718;2022-07-11T03:11:31;14.10;99.90
12708;DHT22;6418;50.824;4.718;2022-07-11T03:13:58;14.10;99.90
12708;DHT22;6418;50.824;4.718;2022-07-11T03:16:26;14.10;99.90
12708;DHT22;6418;50.824;4.718;2022-07-11T03:18:53;14.10;99.90
12708;DHT22;6418;50.824;4.718;2022-07-11T03:21:20;14.10;99.90
12708;DHT22;6418;50.824;4.718;2022-07-11T03:23:49;14.10;99.90
12708;DHT22;6418;50.824;4.718;2022-07-11T03:26:16;14.10;99.90
12708;DHT22;6418;50.824;4.718;2022-07-11T03:28:43;14.10;99.90
12708;DHT22;6418;50.824;4.718;2022-07-11T03:31:10;14.00;99.90
12708;DHT22;6418;50.824;4.718;2022-07-11T03:33:37;14.00;99.90
12708;DHT22;6418;50.824;4.718;2022-07-11T03:36:05;14.00;99.90
12708;DHT22;6418;50.824;4.718;2022-07-11T03:38:32;13.90;99.90
12708;DHT22;6418;50.824;4.718;2022-07-11T03:41:00;13.90;99.90
12708;DHT22;6418;50.824;4.718;2022-07-11T03:43:27;13.90;99.90
12708;DHT22;6418;50.824;4.718;2022-07-11T03:45:54;13.90;99.90
12708;DHT22;6418;50.824;4.718;2022-07-11T03:48:21;13.90;99.90
12708;DHT22;6418;50.824;4.718;2022-07-11T03:50:48;13.90;99.90
12708;DHT22;6418;50.824;4.718;2022-07-11T03:53:16;13.90;99.90
12708;DHT22;6418;50.824;4.718;2022-07-11T03:55:43;13.90;99.90
12708;DHT22;6418;50.824;4.718;2022-07-11T03:58:11;13.90;99.90
12708;DHT22;6418;50.824;4.718;2022-07-11T04:00:38;13.90;99.90
12708;DHT22;6418;50.824;4.718;2022-07-11T04:03:05;13.90;99.90
12708;DHT22;6418;50.824;4.718;2022-07-11T04:05:32;13.90;99.90
12708;DHT22;6418;50.824;4.718;2022-07-11T04:07:59;13.90;99.90
12708;DHT22;6418;50.824;4.718;2022-07-11T04:10:26;13.90;99.90
12708;DHT22;6418;50.824;4.718;2022-07-11T04:12:53;13.90;99.90
12708;DHT22;6418;50.824;4.718;2022-07-11T04:15:22;14.00;99.90
12708;DHT22;6418;50.824;4.718;2022-07-11T04:17:49;14.00;99.90
12708;DHT22;6418;50.824;4.718;2022-07-11T04:20:15;14.00;99.90
12708;DHT22;6418;50.824;4.718;2022-07-11T04:22:42;14.10;99.90
12708;DHT22;6418;50.824;4.718;2022-07-11T04:25:09;14.10;99.90
12708;DHT22;6418;50.824;4.718;2022-07-11T04:27:36;14.10;99.90
12708;DHT22;6418;50.824;4.718;2022-07-11T04:30:04;14.10;99.90
12708;DHT22;6418;50.824;4.718;2022-07-11T04:32:32;14.10;99.90
12708;DHT22;6418;50.824;4.718;2022-07-11T04:35:01;14.20;99.90
12708;DHT22;6418;50.824;4.718;2022-07-11T04:37:28;14.20;99.90
12708;DHT22;6418;50.824;4.718;2022-07-11T04:39:55;14.20;99.90
12708;DHT22;6418;50.824;4.718;2022-07-11T04:42:22;14.20;99.90
12708;DHT22;6418;50.824;4.718;2022-07-11T04:44:49;14.30;99.90
12708;DHT22;6418;50.824;4.718;2022-07-11T04:47:16;14.30;99.90
12708;DHT22;6418;50.824;4.718;2022-07-11T04:49:44;14.30;99.90
12708;DHT22;6418;50.824;4.718;2022-07-11T04:52:12;14.30;99.90
12708;DHT22;6418;50.824;4.718;2022-07-11T04:54:39;14.30;99.90
12708;DHT22;6418;50.824;4.718;2022-07-11T04:57:06;14.40;99.90
12708;DHT22;6418;50.824;4.718;2022-07-11T04:59:33;14.40;99.90
12708;DHT22;6418;50.824;4.718;2022-07-11T05:02:00;14.40;99.90
12708;DHT22;6418;50.824;4.718;2022-07-11T05:04:27;14.40;99.90
12708;DHT22;6418;50.824;4.718;2022-07-11T05:06:55;14.40;99.90
12708;DHT22;6418;50.824;4.718;2022-07-11T05:09:22;14.50;99.90
12708;DHT22;6418;50.824;4.718;2022-07-11T05:11:49;14.50;99.90
12708;DHT22;6418;50.824;4.718;2022-07-11T05:14:16;14.60;99.90
12708;DHT22;6418;50.824;4.718;2022-07-11T05:16:43;14.60;99.90
12708;DHT22;6418;50.824;4.718;2022-07-11T05:19:10;14.60;99.90
12708;DHT22;6418;50.824;4.718;2022-07-11T05:21:37;14.70;99.90
12708;DHT22;6418;50.824;4.718;2022-07-11T05:24:05;14.70;99.90
12708;DHT22;6418;50.824;4.718;2022-07-11T05:26:33;14.70;99.90
12708;DHT22;6418;50.824;4.718;2022-07-11T05:29:00;14.80;99.90
12708;DHT22;6418;50.824;4.718;2022-07-11T05:31:27;14.80;99.90
12708;DHT22;6418;50.824;4.718;2022-07-11T05:33:55;14.90;99.90
12708;DHT22;6418;50.824;4.718;2022-07-11T05:36:22;14.90;99.90
12708;DHT22;6418;50.824;4.718;2022-07-11T05:38:49;15.00;99.90
12708;DHT22;6418;50.824;4.718;2022-07-11T05:41:17;15.00;99.90
12708;DHT22;6418;50.824;4.718;2022-07-11T05:43:44;15.00;99.90
12708;DHT22;6418;50.824;4.718;2022-07-11T05:46:11;15.10;99.90
12708;DHT22;6418;50.824;4.718;2022-07-11T05:48:38;15.20;99.90
12708;DHT22;6418;50.824;4.718;2022-07-11T05:51:05;15.30;99.90
12708;DHT22;6418;50.824;4.718;2022-07-11T05:53:32;15.40;99.90
12708;DHT22;6418;50.824;4.718;2022-07-11T05:55:59;15.50;99.90
12708;DHT22;6418;50.824;4.718;2022-07-11T05:58:27;15.50;99.90
12708;DHT22;6418;50.824;4.718;2022-07-11T06:00:54;15.60;99.90
12708;DHT22;6418;50.824;4.718;2022-07-11T06:03:24;15.70;99.90
12708;DHT22;6418;50.824;4.718;2022-07-11T06:05:51;15.80;99.90
12708;DHT22;6418;50.824;4.718;2022-07-11T06:08:18;15.80;99.90
12708;DHT22;6418;50.824;4.718;2022-07-11T06:11:02;15.90;99.90
12708;DHT22;6418;50.824;4.718;2022-07-11T06:13:30;16.00;99.90
12708;DHT22;6418;50.824;4.718;2022-07-11T06:15:57;16.10;99.90
12708;DHT22;6418;50.824;4.718;2022-07-11T06:18:24;16.10;99.90
12708;DHT22;6418;50.824;4.718;2022-07-11T06:20:52;16.20;99.90
12708;DHT22;6418;50.824;4.718;2022-07-11T06:23:19;16.30;99.90
12708;DHT22;6418;50.824;4.718;2022-07-11T06:25:46;16.30;99.90
12708;DHT22;6418;50.824;4.718;2022-07-11T06:28:13;16.40;99.90
12708;DHT22;6418;50.824;4.718;2022-07-11T06:30:41;16.40;99.90
12708;DHT22;6418;50.824;4.718;2022-07-11T06:33:08;16.40;99.90
12708;DHT22;6418;50.824;4.718;2022-07-11T06:35:35;16.50;99.90
12708;DHT22;6418;50.824;4.718;2022-07-11T06:38:02;16.60;99.90
12708;DHT22;6418;50.824;4.718;2022-07-11T06:40:29;16.60;99.90
12708;DHT22;6418;50.824;4.718;2022-07-11T06:42:56;16.70;99.90
12708;DHT22;6418;50.824;4.718;2022-07-11T06:45:23;16.80;99.90
12708;DHT22;6418;50.824;4.718;2022-07-11T06:47:51;16.80;99.90
12708;DHT22;6418;50.824;4.718;2022-07-11T06:50:19;16.90;99.90
12708;DHT22;6418;50.824;4.718;2022-07-11T06:52:46;17.00;99.90
12708;DHT22;6418;50.824;4.718;2022-07-11T06:55:14;17.10;99.90
12708;DHT22;6418;50.824;4.718;2022-07-11T06:57:40;17.20;99.90
12708;DHT22;6418;50.824;4.718;2022-07-11T07:00:08;17.20;99.90
12708;DHT22;6418;50.824;4.718;2022-07-11T07:02:36;17.30;99.90
12708;DHT22;6418;50.824;4.718;2022-07-11T07:05:06;17.30;99.90
12708;DHT22;6418;50.824;4.718;2022-07-11T07:07:33;17.30;99.90
12708;DHT22;6418;50.824;4.718;2022-07-11T07:10:00;17.40;99.90
12708;DHT22;6418;50.824;4.718;2022-07-11T07:12:27;17.40;99.90
12708;DHT22;6418;50.824;4.718;2022-07-11T07:14:54;17.50;99.90
12708;DHT22;6418;50.824;4.718;2022-07-11T07:17:21;17.60;99.90
12708;DHT22;6418;50.824;4.718;2022-07-11T07:19:48;17.70;99.90
12708;DHT22;6418;50.824;4.718;2022-07-11T07:22:16;17.80;99.90
12708;DHT22;6418;50.824;4.718;2022-07-11T07:24:43;18.00;99.90
12708;DHT22;6418;50.824;4.718;2022-07-11T07:27:11;18.10;99.90
12708;DHT22;6418;50.824;4.718;2022-07-11T07:29:38;18.20;99.90
12708;DHT22;6418;50.824;4.718;2022-07-11T07:32:05;18.30;99.90
12708;DHT22;6418;50.824;4.718;2022-07-11T07:34:32;18.50;99.90
12708;DHT22;6418;50.824;4.718;2022-07-11T07:36:59;18.60;99.90
12708;DHT22;6418;50.824;4.718;2022-07-11T07:39:27;18.70;99.90
12708;DHT22;6418;50.824;4.718;2022-07-11T07:41:54;18.90;99.90
12708;DHT22;6418;50.824;4.718;2022-07-11T07:44:21;19.00;99.90
12708;DHT22;6418;50.824;4.718;2022-07-11T07:46:48;19.00;99.90
12708;DHT22;6418;50.824;4.718;2022-07-11T07:49:15;19.10;99.90
12708;DHT22;6418;50.824;4.718;2022-07-11T07:51:42;19.10;99.90
12708;DHT22;6418;50.824;4.718;2022-07-11T07:54:09;19.20;99.90
12708;DHT22;6418;50.824;4.718;2022-07-11T07:56:38;19.30;99.90
12708;DHT22;6418;50.824;4.718;2022-07-11T07:59:04;19.40;99.90
12708;DHT22;6418;50.824;4.718;2022-07-11T08:01:31;19.40;99.90
12708;DHT22;6418;50.824;4.718;2022-07-11T08:04:00;19.50;99.90
12708;DHT22;6418;50.824;4.718;2022-07-11T08:06:27;19.60;99.90
12708;DHT22;6418;50.824;4.718;2022-07-11T08:08:54;19.60;99.90
12708;DHT22;6418;50.824;4.718;2022-07-11T08:11:21;19.70;99.90
12708;DHT22;6418;50.824;4.718;2022-07-11T08:13:49;19.70;99.90
12708;DHT22;6418;50.824;4.718;2022-07-11T08:16:16;19.70;99.90
12708;DHT22;6418;50.824;4.718;2022-07-11T08:18:44;19.70;99.90
12708;DHT22;6418;50.824;4.718;2022-07-11T08:21:11;19.70;99.90
12708;DHT22;6418;50.824;4.718;2022-07-11T08:23:38;19.80;99.90
12708;DHT22;6418;50.824;4.718;2022-07-11T08:26:05;19.90;99.90
12708;DHT22;6418;50.824;4.718;2022-07-11T08:28:32;20.00;99.90
12708;DHT22;6418;50.824;4.718;2022-07-11T08:31:00;20.00;99.90
12708;DHT22;6418;50.824;4.718;2022-07-11T08:33:27;20.00;99.90
12708;DHT22;6418;50.824;4.718;2022-07-11T08:35:54;20.50;99.90
12708;DHT22;6418;50.824;4.718;2022-07-11T08:38:21;19.80;99.90
12708;DHT22;6418;50.824;4.718;2022-07-11T08:40:49;19.80;99.90
12708;DHT22;6418;50.824;4.718;2022-07-11T08:43:17;19.80;99.90
12708;DHT22;6418;50.824;4.718;2022-07-11T08:45:44;19.80;99.90
12708;DHT22;6418;50.824;4.718;2022-07-11T08:48:14;19.80;99.90
12708;DHT22;6418;50.824;4.718;2022-07-11T08:50:41;19.90;99.90
12708;DHT22;6418;50.824;4.718;2022-07-11T08:53:09;20.00;99.90
12708;DHT22;6418;50.824;4.718;2022-07-11T08:55:36;20.10;99.90
12708;DHT22;6418;50.824;4.718;2022-07-11T08:58:04;20.10;99.90
12708;DHT22;6418;50.824;4.718;2022-07-11T09:00:33;20.20;99.90
12708;DHT22;6418;50.824;4.718;2022-07-11T09:03:02;20.10;99.90
12708;DHT22;6418;50.824;4.718;2022-07-11T09:05:31;20.10;99.90
12708;DHT22;6418;50.824;4.718;2022-07-11T09:07:58;20.10;99.90
12708;DHT22;6418;50.824;4.718;2022-07-11T09:10:25;20.20;99.90
12708;DHT22;6418;50.824;4.718;2022-07-11T09:13:00;20.20;99.90
12708;DHT22;6418;50.824;4.718;2022-07-11T09:15:34;20.20;99.90
12708;DHT22;6418;50.824;4.718;2022-07-11T09:18:03;20.20;99.90
12708;DHT22;6418;50.824;4.718;2022-07-11T09:20:52;20.30;99.90
12708;DHT22;6418;50.824;4.718;2022-07-11T09:23:36;20.30;99.90
12708;DHT22;6418;50.824;4.718;2022-07-11T09:26:20;20.40;99.90
12708;DHT22;6418;50.824;4.718;2022-07-11T09:28:58;20.50;99.90
12708;DHT22;6418;50.824;4.718;2022-07-11T09:31:27;20.60;99.90
12708;DHT22;6418;50.824;4.718;2022-07-11T09:34:00;20.60;99.90
12708;DHT22;6418;50.824;4.718;2022-07-11T09:36:36;20.50;99.90
12708;DHT22;6418;50.824;4.718;2022-07-11T09:39:04;20.60;99.90
12708;DHT22;6418;50.824;4.718;2022-07-11T09:41:32;20.60;99.90
12708;DHT22;6418;50.824;4.718;2022-07-11T09:44:14;20.50;99.90
12708;DHT22;6418;50.824;4.718;2022-07-11T09:46:42;20.50;99.90
12708;DHT22;6418;50.824;4.718;2022-07-11T09:49:11;20.60;99.90
12708;DHT22;6418;50.824;4.718;2022-07-11T09:51:39;20.60;99.90
12708;DHT22;6418;50.824;4.718;2022-07-11T09:54:07;20.70;99.90
12708;DHT22;6418;50.824;4.718;2022-07-11T09:56:40;20.80;99.90
12708;DHT22;6418;50.824;4.718;2022-07-11T09:59:09;20.90;99.90
12708;DHT22;6418;50.824;4.718;2022-07-11T10:01:37;20.90;99.90
12708;DHT22;6418;50.824;4.718;2022-07-11T10:04:06;20.90;99.90
12708;DHT22;6418;50.824;4.718;2022-07-11T10:06:33;20.90;99.90
12708;DHT22;6418;50.824;4.718;2022-07-11T10:09:02;21.00;99.90
12708;DHT22;6418;50.824;4.718;2022-07-11T10:11:31;21.00;99.90
12708;DHT22;6418;50.824;4.718;2022-07-11T10:13:59;21.00;99.90
12708;DHT22;6418;50.824;4.718;2022-07-11T10:16:38;21.10;99.90
12708;DHT22;6418;50.824;4.718;2022-07-11T10:19:18;21.20;99.90
12708;DHT22;6418;50.824;4.718;2022-07-11T10:21:55;21.20;99.90
12708;DHT22;6418;50.824;4.718;2022-07-11T10:24:36;21.30;99.90
12708;DHT22;6418;50.824;4.718;2022-07-11T10:27:08;21.30;99.90
12708;DHT22;6418;50.824;4.718;2022-07-11T10:29:39;21.20;99.90
12708;DHT22;6418;50.824;4.718;2022-07-11T10:32:10;21.30;99.90
12708;DHT22;6418;50.824;4.718;2022-07-11T10:34:37;21.30;99.90
12708;DHT22;6418;50.824;4.718;2022-07-11T10:37:06;21.40;99.90
12708;DHT22;6418;50.824;4.718;2022-07-11T10:39:35;21.40;99.90
12708;DHT22;6418;50.824;4.718;2022-07-11T10:42:04;21.50;99.90
12708;DHT22;6418;50.824;4.718;2022-07-11T10:44:47;21.60;99.90
12708;DHT22;6418;50.824;4.718;2022-07-11T10:47:32;21.80;99.90
12708;DHT22;6418;50.824;4.718;2022-07-11T10:50:05;21.90;99.90
12708;DHT22;6418;50.824;4.718;2022-07-11T10:52:34;22.00;99.90
12708;DHT22;6418;50.824;4.718;2022-07-11T10:55:13;22.10;99.90
12708;DHT22;6418;50.824;4.718;2022-07-11T10:57:50;22.20;99.90
12708;DHT22;6418;50.824;4.718;2022-07-11T11:00:21;22.40;99.90
12708;DHT22;6418;50.824;4.718;2022-07-11T11:03:02;22.50;99.90
12708;DHT22;6418;50.824;4.718;2022-07-11T11:05:46;22.70;99.90
12708;DHT22;6418;50.824;4.718;2022-07-11T11:08:42;22.60;99.90
12708;DHT22;6418;50.824;4.718;2022-07-11T11:11:35;22.80;99.90
12708;DHT22;6418;50.824;4.718;2022-07-11T11:14:22;23.00;99.90
12708;DHT22;6418;50.824;4.718;2022-07-11T11:16:52;23.20;99.90
12708;DHT22;6418;50.824;4.718;2022-07-11T11:19:53;23.20;99.90
12708;DHT22;6418;50.824;4.718;2022-07-11T11:22:22;23.30;99.90
12708;DHT22;6418;50.824;4.718;2022-07-11T11:24:51;23.50;99.90
12708;DHT22;6418;50.824;4.718;2022-07-11T11:27:21;23.60;99.90
12708;DHT22;6418;50.824;4.718;2022-07-11T11:29:50;23.70;99.90
12708;DHT22;6418;50.824;4.718;2022-07-11T11:32:18;23.80;99.90
12708;DHT22;6418;50.824;4.718;2022-07-11T11:34:45;23.80;99.90
12708;DHT22;6418;50.824;4.718;2022-07-11T11:37:15;23.90;99.90
12708;DHT22;6418;50.824;4.718;2022-07-11T11:39:42;23.80;99.90
12708;DHT22;6418;50.824;4.718;2022-07-11T11:42:12;23.80;99.90
12708;DHT22;6418;50.824;4.718;2022-07-11T11:44:55;23.80;99.90
12708;DHT22;6418;50.824;4.718;2022-07-11T11:47:23;23.80;99.90
12708;DHT22;6418;50.824;4.718;2022-07-11T11:49:50;23.90;99.90
12708;DHT22;6418;50.824;4.718;2022-07-11T11:52:18;23.90;99.90
12708;DHT22;6418;50.824;4.718;2022-07-11T11:54:56;23.90;99.90
12708;DHT22;6418;50.824;4.718;2022-07-11T11:57:26;24.00;99.90
12708;DHT22;6418;50.824;4.718;2022-07-11T11:59:55;24.10;99.90
12708;DHT22;6418;50.824;4.718;2022-07-11T12:02:25;24.20;99.90
12708;DHT22;6418;50.824;4.718;2022-07-11T12:04:52;24.10;99.90
12708;DHT22;6418;50.824;4.718;2022-07-11T12:07:27;24.00;99.90
12708;DHT22;6418;50.824;4.718;2022-07-11T12:09:55;24.00;99.90
12708;DHT22;6418;50.824;4.718;2022-07-11T12:12:25;24.00;99.90
12708;DHT22;6418;50.824;4.718;2022-07-11T12:15:31;24.00;99.90
12708;DHT22;6418;50.824;4.718;2022-07-11T12:18:02;24.20;99.90
12708;DHT22;6418;50.824;4.718;2022-07-11T12:20:38;24.30;99.90
12708;DHT22;6418;50.824;4.718;2022-07-11T12:23:07;24.20;99.90
12708;DHT22;6418;50.824;4.718;2022-07-11T12:25:34;23.90;99.90
12708;DHT22;6418;50.824;4.718;2022-07-11T12:28:01;24.00;99.90
12708;DHT22;6418;50.824;4.718;2022-07-11T12:30:30;24.00;99.90
12708;DHT22;6418;50.824;4.718;2022-07-11T12:33:05;24.20;99.90
12708;DHT22;6418;50.824;4.718;2022-07-11T12:35:32;24.40;99.90
12708;DHT22;6418;50.824;4.718;2022-07-11T12:37:59;24.50;99.90
12708;DHT22;6418;50.824;4.718;2022-07-11T12:40:26;24.50;99.90
12708;DHT22;6418;50.824;4.718;2022-07-11T12:42:53;24.50;99.90
12708;DHT22;6418;50.824;4.718;2022-07-11T12:45:19;24.50;99.90
12708;DHT22;6418;50.824;4.718;2022-07-11T12:47:48;24.60;99.90
12708;DHT22;6418;50.824;4.718;2022-07-11T12:50:18;24.60;99.90
12708;DHT22;6418;50.824;4.718;2022-07-11T12:52:47;24.70;99.90
12708;DHT22;6418;50.824;4.718;2022-07-11T12:55:22;24.90;99.90
12708;DHT22;6418;50.824;4.718;2022-07-11T12:58:06;24.90;99.90
12708;DHT22;6418;50.824;4.718;2022-07-11T13:00:34;24.80;99.90
12708;DHT22;6418;50.824;4.718;2022-07-11T13:03:04;24.90;99.90
12708;DHT22;6418;50.824;4.718;2022-07-11T13:05:46;25.00;99.90
12708;DHT22;6418;50.824;4.718;2022-07-11T13:08:26;25.20;99.90
12708;DHT22;6418;50.824;4.718;2022-07-11T13:11:12;25.40;99.90
12708;DHT22;6418;50.824;4.718;2022-07-11T13:13:40;25.50;99.90
12708;DHT22;6418;50.824;4.718;2022-07-11T13:16:07;25.80;99.90
12708;DHT22;6418;50.824;4.718;2022-07-11T13:18:35;26.10;99.90
12708;DHT22;6418;50.824;4.718;2022-07-11T13:21:03;26.30;99.90
12708;DHT22;6418;50.824;4.718;2022-07-11T13:23:30;26.70;99.90
12708;DHT22;6418;50.824;4.718;2022-07-11T13:25:57;27.20;99.90
12708;DHT22;6418;50.824;4.718;2022-07-11T13:28:24;27.70;99.90
12708;DHT22;6418;50.824;4.718;2022-07-11T13:30:52;27.90;99.90
12708;DHT22;6418;50.824;4.718;2022-07-11T13:33:19;28.30;99.90
12708;DHT22;6418;50.824;4.718;2022-07-11T13:35:48;28.10;99.90
12708;DHT22;6418;50.824;4.718;2022-07-11T13:38:15;27.90;99.90
12708;DHT22;6418;50.824;4.718;2022-07-11T13:40:43;27.60;99.90
12708;DHT22;6418;50.824;4.718;2022-07-11T13:43:10;27.90;99.90
12708;DHT22;6418;50.824;4.718;2022-07-11T13:45:38;28.40;99.90
12708;DHT22;6418;50.824;4.718;2022-07-11T13:48:05;29.00;99.90
12708;DHT22;6418;50.824;4.718;2022-07-11T13:50:33;29.50;99.90
12708;DHT22;6418;50.824;4.718;2022-07-11T13:53:01;29.90;99.90
12708;DHT22;6418;50.824;4.718;2022-07-11T13:55:28;30.10;99.90
12708;DHT22;6418;50.824;4.718;2022-07-11T13:57:57;30.20;99.90
12708;DHT22;6418;50.824;4.718;2022-07-11T14:00:24;30.30;99.90
12708;DHT22;6418;50.824;4.718;2022-07-11T14:02:52;30.30;99.90
12708;DHT22;6418;50.824;4.718;2022-07-11T14:05:19;29.70;99.90
12708;DHT22;6418;50.824;4.718;2022-07-11T14:07:46;29.50;99.90
12708;DHT22;6418;50.824;4.718;2022-07-11T14:10:15;29.50;99.90
12708;DHT22;6418;50.824;4.718;2022-07-11T14:12:42;29.70;99.90
12708;DHT22;6418;50.824;4.718;2022-07-11T14:15:10;29.90;99.90
12708;DHT22;6418;50.824;4.718;2022-07-11T14:17:37;30.20;99.90
12708;DHT22;6418;50.824;4.718;2022-07-11T14:20:05;29.90;99.90
12708;DHT22;6418;50.824;4.718;2022-07-11T14:22:33;29.90;99.90
12708;DHT22;6418;50.824;4.718;2022-07-11T14:25:00;29.90;99.90
12708;DHT22;6418;50.824;4.718;2022-07-11T14:27:29;29.80;99.90
12708;DHT22;6418;50.824;4.718;2022-07-11T14:29:56;29.70;99.90
12708;DHT22;6418;50.824;4.718;2022-07-11T14:32:23;29.80;99.90
12708;DHT22;6418;50.824;4.718;2022-07-11T14:34:50;30.20;99.90
12708;DHT22;6418;50.824;4.718;2022-07-11T14:37:17;30.50;99.90
12708;DHT22;6418;50.824;4.718;2022-07-11T14:39:43;31.00;99.90
12708;DHT22;6418;50.824;4.718;2022-07-11T14:42:10;31.60;99.90
12708;DHT22;6418;50.824;4.718;2022-07-11T14:44:39;31.60;99.90
12708;DHT22;6418;50.824;4.718;2022-07-11T14:47:06;32.00;99.90
12708;DHT22;6418;50.824;4.718;2022-07-11T14:49:34;31.50;99.90
12708;DHT22;6418;50.824;4.718;2022-07-11T14:52:01;31.60;99.90
12708;DHT22;6418;50.824;4.718;2022-07-11T14:54:28;31.30;99.90
12708;DHT22;6418;50.824;4.718;2022-07-11T14:56:55;31.70;99.90
12708;DHT22;6418;50.824;4.718;2022-07-11T14:59:22;32.00;99.90
12708;DHT22;6418;50.824;4.718;2022-07-11T15:01:50;32.30;99.90
12708;DHT22;6418;50.824;4.718;2022-07-11T15:04:17;32.50;99.90
12708;DHT22;6418;50.824;4.718;2022-07-11T15:06:44;33.00;99.90
12708;DHT22;6418;50.824;4.718;2022-07-11T15:09:29;33.50;99.90
12708;DHT22;6418;50.824;4.718;2022-07-11T15:12:13;33.70;99.90
12708;DHT22;6418;50.824;4.718;2022-07-11T15:14:54;33.70;99.90
12708;DHT22;6418;50.824;4.718;2022-07-11T15:17:22;33.20;99.90
12708;DHT22;6418;50.824;4.718;2022-07-11T15:19:49;33.30;99.90
12708;DHT22;6418;50.824;4.718;2022-07-11T15:22:16;33.00;99.90
12708;DHT22;6418;50.824;4.718;2022-07-11T15:24:44;32.70;99.90
12708;DHT22;6418;50.824;4.718;2022-07-11T15:27:11;32.90;99.90
12708;DHT22;6418;50.824;4.718;2022-07-11T15:29:38;33.40;99.90
12708;DHT22;6418;50.824;4.718;2022-07-11T15:32:06;33.90;99.90
12708;DHT22;6418;50.824;4.718;2022-07-11T15:34:34;34.50;99.90
12708;DHT22;6418;50.824;4.718;2022-07-11T15:37:02;34.90;99.90
12708;DHT22;6418;50.824;4.718;2022-07-11T15:39:29;34.80;99.90
12708;DHT22;6418;50.824;4.718;2022-07-11T15:41:56;34.90;99.80
12708;DHT22;6418;50.824;4.718;2022-07-11T15:44:23;34.90;99.00
12708;DHT22;6418;50.824;4.718;2022-07-11T15:46:51;34.70;98.40
12708;DHT22;6418;50.824;4.718;2022-07-11T15:49:18;35.00;99.90
12708;DHT22;6418;50.824;4.718;2022-07-11T15:51:47;35.10;98.40
12708;DHT22;6418;50.824;4.718;2022-07-11T15:54:13;35.30;99.50
12708;DHT22;6418;50.824;4.718;2022-07-11T15:56:41;35.50;99.80